sensor_id;sensor_type;location;lat;lon;timestamp;P1;durP1;ratioP1;P2;durP2;ratioP2
81627;SDS011;71036;51.102;6.514;2023-12-22T00:02:05;5.27;;;0.87;;
81627;SDS011;71036;51.102;6.514;2023-12-22T00:04:30;1.77;;;0.70;;
81627;SDS011;71036;51.102;6.514;2023-12-22T00:06:55;2.72;;;0.60;;
81627;SDS011;71036;51.102;6.514;2023-12-22T00:09:20;4.20;;;0.85;;
81627;SDS011;71036;51.102;6.514;2023-12-22T00:11:46;2.50;;;0.77;;
81627;SDS011;71036;51.102;6.514;2023-12-22T00:14:11;3.03;;;1.20;;
81627;SDS011;71036;51.102;6.514;2023-12-22T00:16:36;3.87;;;0.57;;
81627;SDS011;71036;51.102;6.514;2023-12-22T00:19:03;3.03;;;0.60;;
81627;SDS011;71036;51.102;6.514;2023-12-22T00:21:28;12.17;;;1.10;;
81627;SDS011;71036;51.102;6.514;2023-12-22T00:23:53;2.63;;;0.50;;
81627;SDS011;71036;51.102;6.514;2023-12-22T00:26:18;4.77;;;0.63;;
81627;SDS011;71036;51.102;6.514;2023-12-22T00:28:43;3.42;;;0.95;;
81627;SDS011;71036;51.102;6.514;2023-12-22T00:31:09;13.87;;;0.90;;
81627;SDS011;71036;51.102;6.514;2023-12-22T00:33:37;3.73;;;1.17;;
81627;SDS011;71036;51.102;6.514;2023-12-22T00:36:02;5.40;;;0.45;;
81627;SDS011;71036;51.102;6.514;2023-12-22T00:38:27;4.23;;;1.07;;
81627;SDS011;71036;51.102;6.514;2023-12-22T00:40:52;2.87;;;0.70;;
81627;SDS011;71036;51.102;6.514;2023-12-22T00:43:17;6.85;;;1.02;;
81627;SDS011;71036;51.102;6.514;2023-12-22T00:45:43;7.03;;;0.90;;
81627;SDS011;71036;51.102;6.514;2023-12-22T00:48:08;5.73;;;0.93;;
81627;SDS011;71036;51.102;6.514;2023-12-22T00:50:33;12.20;;;2.43;;
81627;SDS011;71036;51.102;6.514;2023-12-22T00:52:58;4.05;;;1.02;;
81627;SDS011;71036;51.102;6.514;2023-12-22T00:55:23;3.65;;;0.70;;
81627;SDS011;71036;51.102;6.514;2023-12-22T00:57:48;3.28;;;0.90;;
81627;SDS011;71036;51.102;6.514;2023-12-22T01:00:14;6.73;;;1.37;;
81627;SDS011;71036;51.102;6.514;2023-12-22T01:02:39;4.93;;;1.30;;
81627;SDS011;71036;51.102;6.514;2023-12-22T01:05:04;12.03;;;1.53;;
81627;SDS011;71036;51.102;6.514;2023-12-22T01:07:29;6.80;;;1.77;;
81627;SDS011;71036;51.102;6.514;2023-12-22T01:09:55;8.07;;;1.53;;
81627;SDS011;71036;51.102;6.514;2023-12-22T01:12:20;17.40;;;1.80;;
81627;SDS011;71036;51.102;6.514;2023-12-22T01:14:46;15.20;;;1.00;;
81627;SDS011;71036;51.102;6.514;2023-12-22T01:17:11;15.37;;;1.07;;
81627;SDS011;71036;51.102;6.514;2023-12-22T01:19:36;5.63;;;1.20;;
81627;SDS011;71036;51.102;6.514;2023-12-22T01:22:01;9.30;;;1.27;;
81627;SDS011;71036;51.102;6.514;2023-12-22T01:24:27;9.20;;;1.70;;
81627;SDS011;71036;51.102;6.514;2023-12-22T01:26:52;10.53;;;1.33;;
81627;SDS011;71036;51.102;6.514;2023-12-22T01:29:17;3.17;;;1.60;;
81627;SDS011;71036;51.102;6.514;2023-12-22T01:31:43;12.30;;;2.50;;
81627;SDS011;71036;51.102;6.514;2023-12-22T01:34:08;7.67;;;1.83;;
81627;SDS011;71036;51.102;6.514;2023-12-22T01:36:34;9.82;;;1.20;;
81627;SDS011;71036;51.102;6.514;2023-12-22T01:38:59;8.10;;;1.10;;
81627;SDS011;71036;51.102;6.514;2023-12-22T01:41:24;10.05;;;0.95;;
81627;SDS011;71036;51.102;6.514;2023-12-22T01:43:49;4.50;;;0.90;;
81627;SDS011;71036;51.102;6.514;2023-12-22T01:46:14;3.70;;;1.40;;
81627;SDS011;71036;51.102;6.514;2023-12-22T01:48:39;17.90;;;2.47;;
81627;SDS011;71036;51.102;6.514;2023-12-22T01:51:05;5.97;;;1.10;;
81627;SDS011;71036;51.102;6.514;2023-12-22T01:53:31;15.60;;;1.30;;
81627;SDS011;71036;51.102;6.514;2023-12-22T01:55:57;5.40;;;0.83;;
81627;SDS011;71036;51.102;6.514;2023-12-22T01:58:23;7.80;;;1.00;;
81627;SDS011;71036;51.102;6.514;2023-12-22T02:00:48;16.17;;;1.73;;
81627;SDS011;71036;51.102;6.514;2023-12-22T02:03:13;9.15;;;1.40;;
81627;SDS011;71036;51.102;6.514;2023-12-22T02:05:40;11.73;;;1.40;;
81627;SDS011;71036;51.102;6.514;2023-12-22T02:08:05;8.03;;;1.00;;
81627;SDS011;71036;51.102;6.514;2023-12-22T02:10:30;7.90;;;1.83;;
81627;SDS011;71036;51.102;6.514;2023-12-22T02:12:56;10.37;;;1.90;;
81627;SDS011;71036;51.102;6.514;2023-12-22T02:15:21;7.43;;;1.63;;
81627;SDS011;71036;51.102;6.514;2023-12-22T02:17:48;9.83;;;1.20;;
81627;SDS011;71036;51.102;6.514;2023-12-22T02:20:15;7.63;;;1.40;;
81627;SDS011;71036;51.102;6.514;2023-12-22T02:22:40;6.43;;;0.90;;
81627;SDS011;71036;51.102;6.514;2023-12-22T02:25:05;9.03;;;1.50;;
81627;SDS011;71036;51.102;6.514;2023-12-22T02:27:41;12.80;;;1.50;;
81627;SDS011;71036;51.102;6.514;2023-12-22T02:32:52;8.40;;;1.33;;
81627;SDS011;71036;51.102;6.514;2023-12-22T02:35:20;24.17;;;1.63;;
81627;SDS011;71036;51.102;6.514;2023-12-22T02:37:46;8.17;;;0.80;;
81627;SDS011;71036;51.102;6.514;2023-12-22T02:40:11;9.73;;;0.97;;
81627;SDS011;71036;51.102;6.514;2023-12-22T02:42:37;6.97;;;1.90;;
81627;SDS011;71036;51.102;6.514;2023-12-22T02:45:03;6.33;;;1.30;;
81627;SDS011;71036;51.102;6.514;2023-12-22T02:47:28;7.00;;;1.27;;
81627;SDS011;71036;51.102;6.514;2023-12-22T02:49:54;11.20;;;1.80;;
81627;SDS011;71036;51.102;6.514;2023-12-22T02:52:19;6.15;;;1.30;;
81627;SDS011;71036;51.102;6.514;2023-12-22T02:54:44;11.45;;;1.77;;
81627;SDS011;71036;51.102;6.514;2023-12-22T02:57:09;16.87;;;1.50;;
81627;SDS011;71036;51.102;6.514;2023-12-22T02:59:34;9.13;;;2.47;;
81627;SDS011;71036;51.102;6.514;2023-12-22T03:02:01;7.90;;;2.30;;
81627;SDS011;71036;51.102;6.514;2023-12-22T03:04:26;16.57;;;2.17;;
81627;SDS011;71036;51.102;6.514;2023-12-22T03:06:52;3.83;;;1.20;;
81627;SDS011;71036;51.102;6.514;2023-12-22T03:09:17;12.13;;;2.15;;
81627;SDS011;71036;51.102;6.514;2023-12-22T03:11:42;17.10;;;2.33;;
81627;SDS011;71036;51.102;6.514;2023-12-22T03:14:08;13.47;;;2.00;;
81627;SDS011;71036;51.102;6.514;2023-12-22T03:16:33;19.50;;;2.30;;
81627;SDS011;71036;51.102;6.514;2023-12-22T03:18:58;14.43;;;2.42;;
81627;SDS011;71036;51.102;6.514;2023-12-22T03:21:23;7.40;;;2.30;;
81627;SDS011;71036;51.102;6.514;2023-12-22T03:23:48;40.10;;;2.00;;
81627;SDS011;71036;51.102;6.514;2023-12-22T03:26:14;11.57;;;1.70;;
81627;SDS011;71036;51.102;6.514;2023-12-22T03:28:39;21.97;;;2.00;;
81627;SDS011;71036;51.102;6.514;2023-12-22T03:31:04;13.80;;;1.67;;
81627;SDS011;71036;51.102;6.514;2023-12-22T03:33:31;14.70;;;1.47;;
81627;SDS011;71036;51.102;6.514;2023-12-22T03:35:56;15.10;;;1.95;;
81627;SDS011;71036;51.102;6.514;2023-12-22T03:38:21;6.93;;;1.73;;
81627;SDS011;71036;51.102;6.514;2023-12-22T03:40:47;14.03;;;1.30;;
81627;SDS011;71036;51.102;6.514;2023-12-22T03:43:12;9.73;;;1.65;;
81627;SDS011;71036;51.102;6.514;2023-12-22T03:45:37;16.75;;;2.13;;
81627;SDS011;71036;51.102;6.514;2023-12-22T03:48:02;7.70;;;1.37;;
81627;SDS011;71036;51.102;6.514;2023-12-22T03:50:27;15.20;;;1.70;;
81627;SDS011;71036;51.102;6.514;2023-12-22T03:52:53;6.35;;;1.13;;
81627;SDS011;71036;51.102;6.514;2023-12-22T03:55:18;1.43;;;0.50;;
81627;SDS011;71036;51.102;6.514;2023-12-22T03:57:43;8.85;;;1.25;;
81627;SDS011;71036;51.102;6.514;2023-12-22T04:00:08;12.50;;;1.13;;
81627;SDS011;71036;51.102;6.514;2023-12-22T04:02:33;10.13;;;1.50;;
81627;SDS011;71036;51.102;6.514;2023-12-22T04:04:59;10.23;;;1.33;;
81627;SDS011;71036;51.102;6.514;2023-12-22T04:07:24;8.50;;;1.80;;
81627;SDS011;71036;51.102;6.514;2023-12-22T04:09:49;7.90;;;1.75;;
81627;SDS011;71036;51.102;6.514;2023-12-22T04:12:14;7.78;;;1.35;;
81627;SDS011;71036;51.102;6.514;2023-12-22T04:14:39;7.80;;;1.25;;
81627;SDS011;71036;51.102;6.514;2023-12-22T04:17:04;2.87;;;0.87;;
81627;SDS011;71036;51.102;6.514;2023-12-22T04:19:30;11.23;;;2.00;;
81627;SDS011;71036;51.102;6.514;2023-12-22T04:21:55;9.40;;;1.20;;
81627;SDS011;71036;51.102;6.514;2023-12-22T04:24:20;9.52;;;1.08;;
81627;SDS011;71036;51.102;6.514;2023-12-22T04:26:45;8.80;;;1.37;;
81627;SDS011;71036;51.102;6.514;2023-12-22T04:29:10;6.82;;;1.20;;
81627;SDS011;71036;51.102;6.514;2023-12-22T04:31:35;14.83;;;1.43;;
81627;SDS011;71036;51.102;6.514;2023-12-22T04:34:01;7.70;;;1.50;;
81627;SDS011;71036;51.102;6.514;2023-12-22T04:36:26;8.87;;;1.50;;
81627;SDS011;71036;51.102;6.514;2023-12-22T04:38:51;31.87;;;2.80;;
81627;SDS011;71036;51.102;6.514;2023-12-22T04:41:16;21.90;;;1.05;;
81627;SDS011;71036;51.102;6.514;2023-12-22T04:43:41;16.15;;;1.35;;
81627;SDS011;71036;51.102;6.514;2023-12-22T04:46:06;10.80;;;1.63;;
81627;SDS011;71036;51.102;6.514;2023-12-22T04:48:32;16.37;;;1.20;;
81627;SDS011;71036;51.102;6.514;2023-12-22T04:50:58;12.67;;;1.67;;
81627;SDS011;71036;51.102;6.514;2023-12-22T04:53:23;10.80;;;1.23;;
81627;SDS011;71036;51.102;6.514;2023-12-22T04:55:48;6.83;;;1.20;;
81627;SDS011;71036;51.102;6.514;2023-12-22T04:58:13;17.50;;;2.30;;
81627;SDS011;71036;51.102;6.514;2023-12-22T05:00:38;12.13;;;1.45;;
81627;SDS011;71036;51.102;6.514;2023-12-22T05:03:04;8.07;;;1.40;;
81627;SDS011;71036;51.102;6.514;2023-12-22T05:05:29;8.30;;;1.80;;
81627;SDS011;71036;51.102;6.514;2023-12-22T05:07:54;16.13;;;1.50;;
81627;SDS011;71036;51.102;6.514;2023-12-22T05:10:19;10.30;;;1.87;;
81627;SDS011;71036;51.102;6.514;2023-12-22T05:12:44;11.80;;;1.33;;
81627;SDS011;71036;51.102;6.514;2023-12-22T05:15:09;21.80;;;1.77;;
81627;SDS011;71036;51.102;6.514;2023-12-22T05:17:34;6.30;;;1.17;;
81627;SDS011;71036;51.102;6.514;2023-12-22T05:20:00;27.33;;;2.63;;
81627;SDS011;71036;51.102;6.514;2023-12-22T05:22:25;6.20;;;1.30;;
81627;SDS011;71036;51.102;6.514;2023-12-22T05:24:51;9.13;;;2.10;;
81627;SDS011;71036;51.102;6.514;2023-12-22T05:27:16;11.10;;;1.10;;
81627;SDS011;71036;51.102;6.514;2023-12-22T05:29:41;14.63;;;1.80;;
81627;SDS011;71036;51.102;6.514;2023-12-22T05:32:06;13.83;;;1.60;;
81627;SDS011;71036;51.102;6.514;2023-12-22T05:34:31;4.90;;;1.20;;
81627;SDS011;71036;51.102;6.514;2023-12-22T05:36:57;12.93;;;1.33;;
81627;SDS011;71036;51.102;6.514;2023-12-22T05:39:22;11.25;;;1.27;;
81627;SDS011;71036;51.102;6.514;2023-12-22T05:41:47;11.43;;;1.92;;
81627;SDS011;71036;51.102;6.514;2023-12-22T05:44:12;15.10;;;1.63;;
81627;SDS011;71036;51.102;6.514;2023-12-22T05:46:37;15.93;;;1.80;;
81627;SDS011;71036;51.102;6.514;2023-12-22T05:49:05;18.73;;;1.73;;
81627;SDS011;71036;51.102;6.514;2023-12-22T05:51:40;10.90;;;1.60;;
81627;SDS011;71036;51.102;6.514;2023-12-22T05:54:06;6.97;;;1.43;;
81627;SDS011;71036;51.102;6.514;2023-12-22T05:56:32;12.27;;;1.93;;
81627;SDS011;71036;51.102;6.514;2023-12-22T05:58:57;28.03;;;1.47;;
81627;SDS011;71036;51.102;6.514;2023-12-22T06:01:23;16.80;;;1.60;;
81627;SDS011;71036;51.102;6.514;2023-12-22T06:03:48;3.92;;;1.40;;
81627;SDS011;71036;51.102;6.514;2023-12-22T06:06:13;12.73;;;3.97;;
81627;SDS011;71036;51.102;6.514;2023-12-22T06:08:38;8.50;;;1.17;;
81627;SDS011;71036;51.102;6.514;2023-12-22T06:11:04;6.07;;;1.23;;
81627;SDS011;71036;51.102;6.514;2023-12-22T06:13:29;10.70;;;1.50;;
81627;SDS011;71036;51.102;6.514;2023-12-22T06:15:54;9.00;;;2.17;;
81627;SDS011;71036;51.102;6.514;2023-12-22T06:18:19;10.32;;;1.35;;
81627;SDS011;71036;51.102;6.514;2023-12-22T06:20:44;10.50;;;1.67;;
81627;SDS011;71036;51.102;6.514;2023-12-22T06:23:09;8.05;;;1.75;;
81627;SDS011;71036;51.102;6.514;2023-12-22T06:25:35;21.40;;;1.93;;
81627;SDS011;71036;51.102;6.514;2023-12-22T06:28:00;9.83;;;2.53;;
81627;SDS011;71036;51.102;6.514;2023-12-22T06:30:25;2.40;;;0.80;;
81627;SDS011;71036;51.102;6.514;2023-12-22T06:32:50;5.82;;;1.40;;
81627;SDS011;71036;51.102;6.514;2023-12-22T06:35:15;3.57;;;0.80;;
81627;SDS011;71036;51.102;6.514;2023-12-22T06:37:40;5.63;;;0.73;;
81627;SDS011;71036;51.102;6.514;2023-12-22T06:40:06;1.80;;;0.88;;
81627;SDS011;71036;51.102;6.514;2023-12-22T06:42:31;7.63;;;0.77;;
81627;SDS011;71036;51.102;6.514;2023-12-22T06:44:56;5.78;;;0.82;;
81627;SDS011;71036;51.102;6.514;2023-12-22T06:47:21;9.95;;;1.20;;
81627;SDS011;71036;51.102;6.514;2023-12-22T06:49:47;4.27;;;1.10;;
81627;SDS011;71036;51.102;6.514;2023-12-22T06:52:12;1.87;;;0.70;;
81627;SDS011;71036;51.102;6.514;2023-12-22T06:54:37;8.27;;;1.10;;
81627;SDS011;71036;51.102;6.514;2023-12-22T06:57:02;6.53;;;1.20;;
81627;SDS011;71036;51.102;6.514;2023-12-22T06:59:27;2.43;;;1.03;;
81627;SDS011;71036;51.102;6.514;2023-12-22T07:01:52;16.77;;;2.70;;
81627;SDS011;71036;51.102;6.514;2023-12-22T07:04:18;20.33;;;2.87;;
81627;SDS011;71036;51.102;6.514;2023-12-22T07:06:43;2.30;;;1.23;;
81627;SDS011;71036;51.102;6.514;2023-12-22T07:11:40;18.83;;;2.57;;
81627;SDS011;71036;51.102;6.514;2023-12-22T07:14:06;14.03;;;2.37;;
81627;SDS011;71036;51.102;6.514;2023-12-22T07:16:31;22.75;;;3.08;;
81627;SDS011;71036;51.102;6.514;2023-12-22T07:18:57;27.67;;;2.83;;
81627;SDS011;71036;51.102;6.514;2023-12-22T07:21:22;15.93;;;2.37;;
81627;SDS011;71036;51.102;6.514;2023-12-22T07:23:48;24.67;;;4.32;;
81627;SDS011;71036;51.102;6.514;2023-12-22T07:26:13;25.50;;;3.85;;
81627;SDS011;71036;51.102;6.514;2023-12-22T07:28:38;17.98;;;2.30;;
81627;SDS011;71036;51.102;6.514;2023-12-22T07:31:03;33.50;;;2.67;;
81627;SDS011;71036;51.102;6.514;2023-12-22T07:33:28;19.53;;;2.30;;
81627;SDS011;71036;51.102;6.514;2023-12-22T07:35:54;28.73;;;2.27;;
81627;SDS011;71036;51.102;6.514;2023-12-22T07:38:19;38.03;;;4.00;;
81627;SDS011;71036;51.102;6.514;2023-12-22T07:40:45;19.73;;;4.97;;
81627;SDS011;71036;51.102;6.514;2023-12-22T07:43:10;29.27;;;4.05;;
81627;SDS011;71036;51.102;6.514;2023-12-22T07:45:35;19.60;;;3.10;;
81627;SDS011;71036;51.102;6.514;2023-12-22T07:48:00;26.03;;;4.30;;
81627;SDS011;71036;51.102;6.514;2023-12-22T07:50:25;22.67;;;3.25;;
81627;SDS011;71036;51.102;6.514;2023-12-22T07:52:50;30.77;;;4.90;;
81627;SDS011;71036;51.102;6.514;2023-12-22T07:55:16;27.67;;;3.93;;
81627;SDS011;71036;51.102;6.514;2023-12-22T07:57:41;32.30;;;3.75;;
81627;SDS011;71036;51.102;6.514;2023-12-22T08:00:06;31.63;;;3.70;;
81627;SDS011;71036;51.102;6.514;2023-12-22T08:02:31;13.97;;;2.27;;
81627;SDS011;71036;51.102;6.514;2023-12-22T08:04:57;33.60;;;2.80;;
81627;SDS011;71036;51.102;6.514;2023-12-22T08:07:22;26.75;;;5.82;;
81627;SDS011;71036;51.102;6.514;2023-12-22T08:09:47;25.37;;;4.00;;
81627;SDS011;71036;51.102;6.514;2023-12-22T08:12:12;30.23;;;4.20;;
81627;SDS011;71036;51.102;6.514;2023-12-22T08:14:37;40.33;;;4.40;;
81627;SDS011;71036;51.102;6.514;2023-12-22T08:17:02;38.77;;;3.80;;
81627;SDS011;71036;51.102;6.514;2023-12-22T08:19:28;16.53;;;3.13;;
81627;SDS011;71036;51.102;6.514;2023-12-22T08:21:53;19.33;;;2.93;;
81627;SDS011;71036;51.102;6.514;2023-12-22T08:24:19;27.07;;;3.07;;
81627;SDS011;71036;51.102;6.514;2023-12-22T08:26:44;35.13;;;4.83;;
81627;SDS011;71036;51.102;6.514;2023-12-22T08:29:10;23.33;;;4.03;;
81627;SDS011;71036;51.102;6.514;2023-12-22T08:31:35;31.03;;;4.20;;
81627;SDS011;71036;51.102;6.514;2023-12-22T08:34:00;22.57;;;4.20;;
81627;SDS011;71036;51.102;6.514;2023-12-22T08:36:25;26.55;;;3.83;;
81627;SDS011;71036;51.102;6.514;2023-12-22T08:38:50;31.50;;;5.03;;
81627;SDS011;71036;51.102;6.514;2023-12-22T08:41:16;29.98;;;4.10;;
81627;SDS011;71036;51.102;6.514;2023-12-22T08:43:41;48.10;;;4.40;;
81627;SDS011;71036;51.102;6.514;2023-12-22T08:46:07;29.30;;;3.40;;
81627;SDS011;71036;51.102;6.514;2023-12-22T08:48:33;26.40;;;3.77;;
81627;SDS011;71036;51.102;6.514;2023-12-22T08:50:58;107.33;;;6.80;;
81627;SDS011;71036;51.102;6.514;2023-12-22T08:53:23;37.10;;;4.10;;
81627;SDS011;71036;51.102;6.514;2023-12-22T08:55:48;32.00;;;4.00;;
81627;SDS011;71036;51.102;6.514;2023-12-22T08:58:14;14.37;;;2.97;;
81627;SDS011;71036;51.102;6.514;2023-12-22T09:00:39;20.93;;;3.30;;
81627;SDS011;71036;51.102;6.514;2023-12-22T09:03:04;28.30;;;3.63;;
81627;SDS011;71036;51.102;6.514;2023-12-22T09:05:29;24.60;;;3.80;;
81627;SDS011;71036;51.102;6.514;2023-12-22T09:07:54;48.08;;;4.85;;
81627;SDS011;71036;51.102;6.514;2023-12-22T09:10:20;45.63;;;5.47;;
81627;SDS011;71036;51.102;6.514;2023-12-22T09:12:45;17.70;;;3.97;;
81627;SDS011;71036;51.102;6.514;2023-12-22T09:15:10;24.10;;;3.20;;
81627;SDS011;71036;51.102;6.514;2023-12-22T09:17:35;25.63;;;3.70;;
81627;SDS011;71036;51.102;6.514;2023-12-22T09:20:00;27.40;;;4.53;;
81627;SDS011;71036;51.102;6.514;2023-12-22T09:22:26;26.58;;;3.53;;
81627;SDS011;71036;51.102;6.514;2023-12-22T09:24:51;17.52;;;3.03;;
81627;SDS011;71036;51.102;6.514;2023-12-22T09:27:16;30.33;;;5.00;;
81627;SDS011;71036;51.102;6.514;2023-12-22T09:29:41;27.10;;;3.90;;
81627;SDS011;71036;51.102;6.514;2023-12-22T09:32:07;21.10;;;3.23;;
81627;SDS011;71036;51.102;6.514;2023-12-22T09:34:32;16.45;;;3.45;;
81627;SDS011;71036;51.102;6.514;2023-12-22T09:36:57;27.13;;;2.90;;
81627;SDS011;71036;51.102;6.514;2023-12-22T09:39:22;12.43;;;3.38;;
81627;SDS011;71036;51.102;6.514;2023-12-22T09:41:48;14.47;;;4.13;;
81627;SDS011;71036;51.102;6.514;2023-12-22T09:44:14;14.60;;;2.60;;
81627;SDS011;71036;51.102;6.514;2023-12-22T09:46:40;19.33;;;3.30;;
81627;SDS011;71036;51.102;6.514;2023-12-22T09:49:05;25.23;;;3.27;;
81627;SDS011;71036;51.102;6.514;2023-12-22T09:51:31;25.20;;;3.10;;
81627;SDS011;71036;51.102;6.514;2023-12-22T09:53:57;15.03;;;2.73;;
81627;SDS011;71036;51.102;6.514;2023-12-22T09:56:23;16.03;;;2.83;;
81627;SDS011;71036;51.102;6.514;2023-12-22T09:58:49;16.40;;;3.20;;
81627;SDS011;71036;51.102;6.514;2023-12-22T10:01:14;12.23;;;2.17;;
81627;SDS011;71036;51.102;6.514;2023-12-22T10:03:40;15.83;;;3.47;;
81627;SDS011;71036;51.102;6.514;2023-12-22T10:06:07;7.23;;;2.57;;
81627;SDS011;71036;51.102;6.514;2023-12-22T10:08:33;18.00;;;2.70;;
81627;SDS011;71036;51.102;6.514;2023-12-22T10:10:58;9.83;;;2.50;;
81627;SDS011;71036;51.102;6.514;2023-12-22T10:13:24;8.17;;;2.10;;
81627;SDS011;71036;51.102;6.514;2023-12-22T10:15:52;10.53;;;1.90;;
81627;SDS011;71036;51.102;6.514;2023-12-22T10:18:19;6.23;;;2.10;;
81627;SDS011;71036;51.102;6.514;2023-12-22T10:20:45;9.40;;;2.47;;
81627;SDS011;71036;51.102;6.514;2023-12-22T10:23:10;24.13;;;3.17;;
81627;SDS011;71036;51.102;6.514;2023-12-22T10:25:35;9.53;;;2.90;;
81627;SDS011;71036;51.102;6.514;2023-12-22T10:28:01;4.60;;;2.47;;
81627;SDS011;71036;51.102;6.514;2023-12-22T10:30:27;5.27;;;2.33;;
81627;SDS011;71036;51.102;6.514;2023-12-22T10:32:53;12.50;;;2.27;;
81627;SDS011;71036;51.102;6.514;2023-12-22T10:35:19;6.97;;;2.73;;
81627;SDS011;71036;51.102;6.514;2023-12-22T10:37:45;11.23;;;2.40;;
81627;SDS011;71036;51.102;6.514;2023-12-22T10:40:10;5.87;;;2.73;;
81627;SDS011;71036;51.102;6.514;2023-12-22T10:42:36;9.60;;;3.07;;
81627;SDS011;71036;51.102;6.514;2023-12-22T10:45:01;5.00;;;2.53;;
81627;SDS011;71036;51.102;6.514;2023-12-22T10:47:27;5.97;;;2.90;;
81627;SDS011;71036;51.102;6.514;2023-12-22T10:49:53;2.77;;;2.13;;
81627;SDS011;71036;51.102;6.514;2023-12-22T10:52:21;9.33;;;2.60;;
81627;SDS011;71036;51.102;6.514;2023-12-22T10:54:46;3.28;;;2.03;;
81627;SDS011;71036;51.102;6.514;2023-12-22T10:57:12;3.03;;;1.80;;
81627;SDS011;71036;51.102;6.514;2023-12-22T10:59:39;7.27;;;1.90;;
81627;SDS011;71036;51.102;6.514;2023-12-22T11:02:05;4.77;;;1.77;;
81627;SDS011;71036;51.102;6.514;2023-12-22T11:04:33;4.90;;;1.60;;
81627;SDS011;71036;51.102;6.514;2023-12-22T11:07:00;2.27;;;1.20;;
81627;SDS011;71036;51.102;6.514;2023-12-22T11:09:28;3.67;;;2.30;;
81627;SDS011;71036;51.102;6.514;2023-12-22T11:11:55;9.67;;;2.23;;
81627;SDS011;71036;51.102;6.514;2023-12-22T11:14:21;4.30;;;2.47;;
81627;SDS011;71036;51.102;6.514;2023-12-22T11:16:47;7.27;;;2.07;;
81627;SDS011;71036;51.102;6.514;2023-12-22T11:19:14;14.43;;;2.50;;
81627;SDS011;71036;51.102;6.514;2023-12-22T11:21:39;6.17;;;2.70;;
81627;SDS011;71036;51.102;6.514;2023-12-22T11:24:05;9.83;;;3.33;;
81627;SDS011;71036;51.102;6.514;2023-12-22T11:26:30;11.77;;;2.60;;
81627;SDS011;71036;51.102;6.514;2023-12-22T11:28:56;2.87;;;2.20;;
81627;SDS011;71036;51.102;6.514;2023-12-22T11:31:21;3.80;;;1.20;;
81627;SDS011;71036;51.102;6.514;2023-12-22T11:33:48;1.50;;;1.03;;
81627;SDS011;71036;51.102;6.514;2023-12-22T11:36:14;2.40;;;1.40;;
81627;SDS011;71036;51.102;6.514;2023-12-22T11:38:46;5.13;;;1.00;;
81627;SDS011;71036;51.102;6.514;2023-12-22T11:41:18;5.17;;;1.60;;
81627;SDS011;71036;51.102;6.514;2023-12-22T11:43:44;2.80;;;1.17;;
81627;SDS011;71036;51.102;6.514;2023-12-22T11:46:10;6.23;;;1.40;;
81627;SDS011;71036;51.102;6.514;2023-12-22T11:48:35;3.80;;;1.40;;
81627;SDS011;71036;51.102;6.514;2023-12-22T11:51:00;3.63;;;1.13;;
81627;SDS011;71036;51.102;6.514;2023-12-22T11:53:30;2.80;;;0.90;;
81627;SDS011;71036;51.102;6.514;2023-12-22T11:56:02;2.87;;;1.73;;
81627;SDS011;71036;51.102;6.514;2023-12-22T11:58:36;4.00;;;1.17;;
81627;SDS011;71036;51.102;6.514;2023-12-22T12:01:01;5.13;;;1.17;;
81627;SDS011;71036;51.102;6.514;2023-12-22T12:03:29;1.87;;;0.97;;
81627;SDS011;71036;51.102;6.514;2023-12-22T12:06:10;11.50;;;1.00;;
81627;SDS011;71036;51.102;6.514;2023-12-22T12:08:35;4.30;;;1.00;;
81627;SDS011;71036;51.102;6.514;2023-12-22T12:11:01;2.70;;;0.80;;
81627;SDS011;71036;51.102;6.514;2023-12-22T12:13:28;2.10;;;0.90;;
81627;SDS011;71036;51.102;6.514;2023-12-22T12:15:55;9.50;;;0.90;;
81627;SDS011;71036;51.102;6.514;2023-12-22T12:18:22;6.73;;;1.13;;
81627;SDS011;71036;51.102;6.514;2023-12-22T12:20:48;4.73;;;1.67;;
81627;SDS011;71036;51.102;6.514;2023-12-22T12:23:14;2.53;;;0.70;;
81627;SDS011;71036;51.102;6.514;2023-12-22T12:25:39;2.90;;;0.90;;
81627;SDS011;71036;51.102;6.514;2023-12-22T12:28:06;12.73;;;1.00;;
81627;SDS011;71036;51.102;6.514;2023-12-22T12:30:32;6.43;;;0.73;;
81627;SDS011;71036;51.102;6.514;2023-12-22T12:33:10;9.27;;;0.90;;
81627;SDS011;71036;51.102;6.514;2023-12-22T12:35:38;2.03;;;1.10;;
81627;SDS011;71036;51.102;6.514;2023-12-22T12:38:04;3.33;;;1.20;;
81627;SDS011;71036;51.102;6.514;2023-12-22T12:40:29;1.93;;;0.87;;
81627;SDS011;71036;51.102;6.514;2023-12-22T12:42:57;4.00;;;0.80;;
81627;SDS011;71036;51.102;6.514;2023-12-22T12:45:22;10.73;;;1.10;;
81627;SDS011;71036;51.102;6.514;2023-12-22T12:48:01;9.10;;;1.20;;
81627;SDS011;71036;51.102;6.514;2023-12-22T12:50:26;1.50;;;0.70;;
81627;SDS011;71036;51.102;6.514;2023-12-22T12:52:53;6.50;;;1.13;;
81627;SDS011;71036;51.102;6.514;2023-12-22T12:55:22;2.90;;;0.77;;
81627;SDS011;71036;51.102;6.514;2023-12-22T12:57:54;7.60;;;0.80;;
81627;SDS011;71036;51.102;6.514;2023-12-22T13:00:29;5.10;;;0.80;;
81627;SDS011;71036;51.102;6.514;2023-12-22T13:02:55;2.50;;;0.50;;
81627;SDS011;71036;51.102;6.514;2023-12-22T13:05:23;4.53;;;1.20;;
81627;SDS011;71036;51.102;6.514;2023-12-22T13:07:48;2.07;;;0.80;;
81627;SDS011;71036;51.102;6.514;2023-12-22T13:10:23;4.57;;;1.30;;
81627;SDS011;71036;51.102;6.514;2023-12-22T13:12:52;3.80;;;0.93;;
81627;SDS011;71036;51.102;6.514;2023-12-22T13:15:20;7.57;;;1.03;;
81627;SDS011;71036;51.102;6.514;2023-12-22T13:17:46;10.13;;;1.57;;
81627;SDS011;71036;51.102;6.514;2023-12-22T13:20:11;9.70;;;0.87;;
81627;SDS011;71036;51.102;6.514;2023-12-22T13:22:37;1.30;;;0.60;;
81627;SDS011;71036;51.102;6.514;2023-12-22T13:25:02;14.97;;;1.27;;
81627;SDS011;71036;51.102;6.514;2023-12-22T13:27:27;6.60;;;0.70;;
81627;SDS011;71036;51.102;6.514;2023-12-22T13:29:52;3.00;;;1.33;;
81627;SDS011;71036;51.102;6.514;2023-12-22T13:32:19;4.53;;;1.23;;
81627;SDS011;71036;51.102;6.514;2023-12-22T13:34:48;1.77;;;0.97;;
81627;SDS011;71036;51.102;6.514;2023-12-22T13:37:13;2.37;;;0.93;;
81627;SDS011;71036;51.102;6.514;2023-12-22T13:39:39;2.30;;;0.80;;
81627;SDS011;71036;51.102;6.514;2023-12-22T13:42:04;5.40;;;1.47;;
81627;SDS011;71036;51.102;6.514;2023-12-22T13:44:29;1.97;;;1.00;;
81627;SDS011;71036;51.102;6.514;2023-12-22T13:46:54;3.53;;;0.77;;
81627;SDS011;71036;51.102;6.514;2023-12-22T13:49:20;3.73;;;1.27;;
81627;SDS011;71036;51.102;6.514;2023-12-22T13:51:45;5.43;;;0.83;;
81627;SDS011;71036;51.102;6.514;2023-12-22T13:54:12;6.63;;;1.03;;
81627;SDS011;71036;51.102;6.514;2023-12-22T13:56:38;2.30;;;1.07;;
81627;SDS011;71036;51.102;6.514;2023-12-22T13:59:06;2.57;;;1.30;;
81627;SDS011;71036;51.102;6.514;2023-12-22T14:01:32;6.73;;;1.10;;
81627;SDS011;71036;51.102;6.514;2023-12-22T14:03:58;2.07;;;0.83;;
81627;SDS011;71036;51.102;6.514;2023-12-22T14:06:24;1.83;;;1.20;;
81627;SDS011;71036;51.102;6.514;2023-12-22T14:08:49;10.43;;;1.63;;
81627;SDS011;71036;51.102;6.514;2023-12-22T14:11:14;19.47;;;2.00;;
81627;SDS011;71036;51.102;6.514;2023-12-22T14:13:40;4.63;;;1.23;;
81627;SDS011;71036;51.102;6.514;2023-12-22T14:16:06;7.30;;;1.40;;
81627;SDS011;71036;51.102;6.514;2023-12-22T14:18:31;3.43;;;0.93;;
81627;SDS011;71036;51.102;6.514;2023-12-22T14:20:56;5.60;;;0.93;;
81627;SDS011;71036;51.102;6.514;2023-12-22T14:23:22;6.83;;;1.27;;
81627;SDS011;71036;51.102;6.514;2023-12-22T14:25:47;6.83;;;1.03;;
81627;SDS011;71036;51.102;6.514;2023-12-22T14:28:13;2.60;;;0.67;;
81627;SDS011;71036;51.102;6.514;2023-12-22T14:30:38;12.57;;;1.33;;
81627;SDS011;71036;51.102;6.514;2023-12-22T14:33:03;12.37;;;1.90;;
81627;SDS011;71036;51.102;6.514;2023-12-22T14:35:28;3.13;;;0.90;;
81627;SDS011;71036;51.102;6.514;2023-12-22T14:37:53;2.72;;;0.70;;